Time;durP1;ratioP1;P1;durP2;ratioP2;P2;SDS_P1;SDS_P2;PMS_P1;PMS_P2;Temp;Humidity;BMP_temperature;BMP_pressure;BME280_temperature;BME280_humidity;BME280_pressure;Samples;Min_cycle;Max_cycle;Signal;HPM_P1;HPM_P2
2022/05/01 00:03:30;;;;;;;18.90;7.72;;;;;;;10.09;48.36;99804.31;8513909;27;20120;-72
2022/05/01 00:07:29;;;;;;;15.27;7.35;;;;;;;10.13;48.29;99808.03;8530015;27;20045;-72
2022/05/01 00:11:32;;;;;;;14.43;7.32;;;;;;;10.10;48.43;99803.19;8517349;27;20039;-73
2022/05/01 00:15:33;;;;;;;16.25;8.15;;;;;;;10.07;48.60;99798.38;8495988;27;20450;-73
2022/05/01 00:19:34;;;;;;;14.65;7.68;;;;;;;10.07;48.64;99792.97;8506870;27;20127;-72
2022/05/01 00:23:35;;;;;;;17.73;7.60;;;;;;;10.14;48.47;99793.44;8498428;27;20531;-72
2022/05/01 00:27:36;;;;;;;15.60;7.85;;;;;;;10.12;48.32;99792.91;8471343;27;20047;-73
2022/05/01 00:31:39;;;;;;;16.73;8.00;;;;;;;10.15;48.34;99795.06;8503348;27;20043;-72
2022/05/01 00:40:00;;;;;;;19.88;8.45;;;;;;;10.04;48.60;99793.56;8456693;27;20054;-72
2022/05/01 00:44:05;;;;;;;19.27;8.50;;;;;;;10.01;48.46;99786.03;8481727;27;20130;-72
2022/05/01 00:48:07;;;;;;;24.83;8.75;;;;;;;9.98;48.67;99789.31;8419662;28;20125;-73
2022/05/01 00:52:10;;;;;;;18.88;8.73;;;;;;;9.96;48.56;99780.69;8404587;28;20051;-73
2022/05/01 00:56:12;;;;;;;18.08;8.85;;;;;;;9.93;48.94;99792.06;8422588;28;20059;-72
2022/05/01 01:00:19;;;;;;;23.10;8.88;;;;;;;9.88;49.12;99784.03;8421691;28;20200;-72
2022/05/01 01:04:20;;;;;;;22.10;8.98;;;;;;;9.83;49.17;99789.50;8405285;28;20106;-73
2022/05/01 01:08:21;;;;;;;19.35;9.05;;;;;;;9.79;49.29;99791.13;8388645;28;20048;-72
2022/05/01 01:16:44;;;;;;;20.92;8.93;;;;;;;9.74;49.31;99784.72;8456284;28;20055;-72
2022/05/01 01:20:45;;;;;;;22.95;8.70;;;;;;;9.81;48.90;99789.78;8526681;27;20492;-72
2022/05/01 01:24:46;;;;;;;19.38;8.30;;;;;;;9.84;48.62;99785.69;8474553;27;20142;-73
2022/05/01 01:28:47;;;;;;;20.00;8.68;;;;;;;9.81;48.65;99794.38;8494358;27;20039;-72
2022/05/01 01:32:48;;;;;;;20.70;9.07;;;;;;;9.70;49.10;99783.69;8491072;27;20448;-72
2022/05/01 01:36:50;;;;;;;18.95;8.82;;;;;;;9.61;49.43;99785.41;8516631;27;20057;-72
2022/05/01 01:40:53;;;;;;;20.08;8.07;;;;;;;9.54;49.95;99779.53;8527767;27;20059;-72
2022/05/01 01:44:55;;;;;;;23.77;9.00;;;;;;;9.49;49.42;99782.28;8501436;27;20404;-73
2022/05/01 01:48:55;;;;;;;19.67;9.10;;;;;;;9.44;49.64;99779.66;8526712;27;20055;-73
2022/05/01 01:52:57;;;;;;;20.23;9.02;;;;;;;9.45;49.67;99770.47;8523437;27;20031;-73
2022/05/01 01:56:59;;;;;;;24.05;9.25;;;;;;;9.46;49.52;99771.28;8493741;27;20143;-72
2022/05/01 02:01:00;;;;;;;23.27;8.25;;;;;;;9.42;49.47;99771.03;8499734;27;20054;-72
2022/05/01 02:05:01;;;;;;;17.50;7.68;;;;;;;9.38;49.64;99778.09;8469573;27;20058;-73
2022/05/01 02:09:06;;;;;;;22.85;7.82;;;;;;;9.32;49.88;99771.13;8490542;27;20039;-72
2022/05/01 02:13:07;;;;;;;31.38;8.82;;;;;;;9.35;49.50;99773.28;8491615;27;20088;-71
2022/05/01 02:17:08;;;;;;;21.05;8.02;;;;;;;9.30;49.69;99779.53;8489975;27;20420;-73
2022/05/01 02:25:30;;;;;;;17.60;8.07;;;;;;;9.22;50.21;99772.03;8498174;27;20057;-72
2022/05/01 02:29:30;;;;;;;23.25;8.65;;;;;;;9.17;50.24;99768.56;8507540;27;20412;-72
2022/05/01 02:33:31;;;;;;;15.45;8.35;;;;;;;9.21;50.24;99764.22;8500067;27;20409;-73
2022/05/01 02:37:32;;;;;;;19.17;8.07;;;;;;;9.13;50.18;99762.16;8532343;27;20066;-73
2022/05/01 02:41:33;;;;;;;19.15;8.50;;;;;;;9.08;50.58;99764.88;8519113;27;20047;-72
2022/05/01 02:45:34;;;;;;;21.02;8.25;;;;;;;9.01;50.76;99759.00;8524715;27;20504;-72
2022/05/01 02:49:36;;;;;;;16.13;7.43;;;;;;;9.03;50.31;99756.84;8520334;27;20054;-73
2022/05/01 02:53:38;;;;;;;18.27;8.05;;;;;;;9.01;50.29;99759.81;8498652;27;20066;-72
2022/05/01 02:57:39;;;;;;;17.20;7.80;;;;;;;9.01;50.72;99759.00;8512961;27;20137;-73
2022/05/01 03:01:40;;;;;;;17.33;7.20;;;;;;;9.10;50.14;99757.31;8531802;27;20071;-73
2022/05/01 03:05:41;;;;;;;15.25;6.97;;;;;;;9.07;50.05;99749.81;8512148;27;20046;-73
2022/05/01 03:09:42;;;;;;;13.80;6.80;;;;;;;9.05;50.16;99754.66;8522932;27;20512;-73
2022/05/01 03:13:43;;;;;;;19.13;7.15;;;;;;;9.00;50.42;99752.00;8463687;27;20074;-72
2022/05/01 03:22:11;;;;;;;14.13;7.47;;;;;;;8.94;50.54;99750.44;8502051;27;20050;-72
2022/05/01 03:26:12;;;;;;;18.67;7.45;;;;;;;8.93;50.60;99751.56;8519900;27;20062;-73
2022/05/01 03:30:16;;;;;;;19.52;7.90;;;;;;;8.88;51.08;99755.09;8515295;27;20042;-73
2022/05/01 03:34:17;;;;;;;20.20;7.95;;;;;;;8.82;51.35;99751.63;8497246;27;20402;-72
2022/05/01 03:38:18;;;;;;;16.25;8.32;;;;;;;8.78;51.36;99753.25;8454084;27;20129;-72
2022/05/01 03:42:19;;;;;;;18.48;7.60;;;;;;;8.78;51.18;99760.53;8498541;27;20083;-72
2022/05/01 03:46:23;;;;;;;17.45;8.20;;;;;;;8.78;51.72;99766.72;8506278;27;20046;-73
2022/05/01 03:50:24;;;;;;;15.55;6.93;;;;;;;8.75;51.45;99756.53;8519297;27;20068;-72
2022/05/01 03:54:25;;;;;;;15.60;6.97;;;;;;;8.81;51.21;99752.72;8522967;27;20065;-72
2022/05/01 03:58:29;;;;;;;16.02;6.85;;;;;;;8.85;51.20;99761.84;8523594;27;20129;-72
2022/05/01 04:02:30;;;;;;;18.35;6.97;;;;;;;8.92;51.19;99755.31;8525280;27;20043;-72
2022/05/01 04:06:31;;;;;;;14.27;6.90;;;;;;;8.94;50.99;99763.91;8520135;27;20042;-72
2022/05/01 04:10:32;;;;;;;19.83;7.15;;;;;;;8.97;51.01;99763.38;8503053;27;20151;-72
2022/05/01 04:14:36;;;;;;;19.45;7.05;;;;;;;9.01;50.98;99764.41;8470224;27;20401;-73
2022/05/01 04:18:37;;;;;;;12.65;6.22;;;;;;;9.06;50.77;99756.28;8527023;27;20046;-73
2022/05/01 04:22:39;;;;;;;14.48;6.75;;;;;;;9.09;50.77;99777.28;8519939;27;20498;-73
2022/05/01 04:26:40;;;;;;;13.85;6.88;;;;;;;9.08;50.85;99764.88;8514419;27;20042;-73
2022/05/01 04:30:41;;;;;;;19.40;6.85;;;;;;;9.15;50.82;99766.16;8521716;27;20126;-73
2022/05/01 04:34:42;;;;;;;15.30;6.28;;;;;;;9.23;50.82;99760.16;8484167;27;20489;-72
2022/05/01 04:38:43;;;;;;;15.52;6.65;;;;;;;9.30;50.63;99759.84;8521677;27;20039;-73
2022/05/01 04:42:45;;;;;;;20.08;6.95;;;;;;;9.35;50.41;99765.19;8467813;27;20057;-72
2022/05/01 04:46:49;;;;;;;15.57;6.88;;;;;;;9.42;50.26;99771.03;8463277;27;20138;-73
2022/05/01 04:50:51;;;;;;;18.40;7.45;;;;;;;9.49;50.30;99766.13;8509287;27;20134;-72
2022/05/01 04:54:51;;;;;;;21.35;6.80;;;;;;;9.56;50.23;99766.59;8496886;27;20043;-72
2022/05/01 04:58:52;;;;;;;20.58;6.40;;;;;;;9.68;50.23;99769.69;8520101;27;20472;-72
2022/05/01 05:02:54;;;;;;;13.35;6.20;;;;;;;9.81;49.77;99767.38;8520271;27;20203;-72
2022/05/01 05:06:55;;;;;;;14.13;6.20;;;;;;;9.94;49.53;99778.28;8496134;27;20046;-73
2022/05/01 05:10:56;;;;;;;12.25;6.78;;;;;;;10.05;48.95;99773.56;8523678;27;20035;-72
2022/05/01 05:14:59;;;;;;;16.48;6.43;;;;;;;10.10;49.13;99770.81;8524764;27;20054;-72
2022/05/01 05:19:00;;;;;;;14.90;6.13;;;;;;;10.15;48.94;99765.38;8453492;27;20409;-73
2022/05/01 05:23:01;;;;;;;13.70;6.82;;;;;;;10.22;48.98;99773.13;8494658;27;20126;-72
2022/05/01 05:27:03;;;;;;;14.75;6.30;;;;;;;10.32;48.86;99773.78;8498065;27;20118;-73
2022/05/01 05:31:04;;;;;;;17.65;6.30;;;;;;;10.39;48.81;99774.25;8510200;27;20050;-73
2022/05/01 05:35:06;;;;;;;19.20;6.47;;;;;;;10.45;48.53;99783.88;8501664;27;20078;-72
2022/05/01 05:39:10;;;;;;;15.45;6.90;;;;;;;10.54;48.56;99782.13;8510713;27;20046;-72
2022/05/01 05:43:11;;;;;;;10.15;5.80;;;;;;;10.63;48.52;99779.56;8507969;27;20055;-73
2022/05/01 05:47:12;;;;;;;21.75;10.02;;;;;;;10.69;48.57;99777.59;8509225;27;20043;-72
2022/05/01 05:51:13;;;;;;;22.73;11.50;;;;;;;10.77;48.40;99785.06;8471797;28;20122;-72
2022/05/01 05:55:14;;;;;;;18.45;8.00;;;;;;;10.89;48.34;99777.31;8472760;27;20043;-72
2022/05/01 05:59:16;;;;;;;12.95;6.72;;;;;;;10.95;48.22;99784.22;8529435;27;20054;-73
2022/05/01 06:03:19;;;;;;;16.83;7.18;;;;;;;11.06;48.25;99782.16;8526048;27;20058;-73
2022/05/01 06:07:19;;;;;;;12.23;6.35;;;;;;;11.22;48.23;99781.59;8522086;27;20073;-72
2022/05/01 06:11:20;;;;;;;11.13;6.40;;;;;;;11.35;47.40;99791.66;8534179;27;20044;-72
2022/05/01 06:15:22;;;;;;;15.02;6.57;;;;;;;11.46;47.59;99786.06;8529569;27;20037;-73
2022/05/01 06:19:23;;;;;;;14.52;6.75;;;;;;;11.59;47.41;99801.50;8514119;27;20039;-73
2022/05/01 06:23:23;;;;;;;11.48;6.43;;;;;;;11.75;47.26;99794.75;8529061;27;20563;-72
2022/05/01 06:27:27;;;;;;;17.25;5.80;;;;;;;11.84;47.02;99806.50;8512194;27;20047;-73
2022/05/01 06:31:29;;;;;;;13.77;6.10;;;;;;;11.95;47.28;99799.78;8508011;27;20429;-72
2022/05/01 06:35:31;;;;;;;17.05;7.20;;;;;;;12.07;47.02;99797.38;8515521;27;20531;-72
2022/05/01 06:39:33;;;;;;;13.65;6.13;;;;;;;12.23;46.15;99806.78;8528304;27;20046;-73
2022/05/01 06:43:35;;;;;;;12.85;7.20;;;;;;;12.37;46.81;99811.41;8499122;27;20055;-72
2022/05/01 06:47:36;;;;;;;16.60;7.07;;;;;;;12.49;46.54;99815.19;8515692;27;20124;-73
2022/05/01 06:51:39;;;;;;;14.32;6.90;;;;;;;12.61;46.42;99811.94;8499564;27;20046;-72
2022/05/01 06:55:40;;;;;;;15.00;6.85;;;;;;;12.67;47.18;99808.03;8523092;27;20046;-72
2022/05/01 06:59:41;;;;;;;16.48;7.15;;;;;;;12.76;46.84;99808.91;8523286;27;20050;-72
2022/05/01 07:03:42;;;;;;;16.10;7.25;;;;;;;12.90;47.15;99815.06;8484036;27;20047;-73
2022/05/01 07:07:43;;;;;;;19.45;7.40;;;;;;;13.02;46.23;99818.03;8478999;27;20096;-72
2022/05/01 07:11:44;;;;;;;13.93;7.88;;;;;;;13.20;45.85;99823.63;8509211;27;20043;-72
2022/05/01 07:15:45;;;;;;;17.30;8.25;;;;;;;13.31;46.69;99814.13;8462116;27;20501;-72
2022/05/01 07:19:46;;;;;;;17.25;8.00;;;;;;;13.42;46.23;99815.50;8523800;27;20062;-72
2022/05/01 07:23:47;;;;;;;20.20;8.65;;;;;;;13.44;46.46;99816.75;8532238;27;20058;-73
2022/05/01 07:27:48;;;;;;;16.35;8.15;;;;;;;13.54;47.15;99810.28;8531323;27;20050;-73
2022/05/01 07:31:49;;;;;;;17.27;7.95;;;;;;;13.63;46.69;99816.56;8530378;27;20051;-73
2022/05/01 07:35:50;;;;;;;21.20;8.82;;;;;;;13.69;47.04;99809.91;8515892;27;20606;-73
2022/05/01 07:39:54;;;;;;;19.17;8.90;;;;;;;13.86;47.21;99809.97;8515289;27;20059;-73
2022/05/01 07:43:55;;;;;;;17.27;9.00;;;;;;;14.10;47.05;99808.78;8496365;27;20496;-74
2022/05/01 07:47:58;;;;;;;13.52;7.57;;;;;;;14.28;46.21;99815.84;8512265;27;20042;-74
2022/05/01 07:51:59;;;;;;;20.33;9.00;;;;;;;14.39;46.08;99800.88;8487531;27;20043;-72
2022/05/01 07:56:00;;;;;;;18.58;8.45;;;;;;;14.60;45.82;99807.31;8467951;27;20054;-73
2022/05/01 08:00:02;;;;;;;16.83;8.63;;;;;;;14.83;44.97;99796.31;8514089;27;20582;-72
2022/05/01 08:08:23;;;;;;;19.60;9.85;;;;;;;15.22;43.33;99790.69;8506460;27;20051;-72
2022/05/01 08:12:26;;;;;;;22.02;8.07;;;;;;;15.39;42.90;99796.06;8497374;27;20096;-72
2022/05/01 08:16:27;;;;;;;24.30;8.85;;;;;;;15.54;43.25;99787.44;8511448;27;20054;-73
2022/05/01 08:24:55;;;;;;;17.08;8.90;;;;;;;15.78;42.37;99777.91;8391068;28;20048;-72
2022/05/01 08:28:58;;;;;;;19.13;8.23;;;;;;;15.85;42.06;99776.28;8355768;28;20053;-76
2022/05/01 08:32:59;;;;;;;17.88;9.38;;;;;;;15.97;41.57;99779.09;8368919;28;20049;-72
2022/05/01 08:37:00;;;;;;;19.70;8.93;;;;;;;15.96;41.75;99776.72;8368779;28;20454;-72
2022/05/01 08:41:02;;;;;;;17.92;8.45;;;;;;;16.14;41.80;99778.19;8386565;28;20075;-72
2022/05/01 08:45:03;;;;;;;17.77;9.70;;;;;;;16.21;40.68;99773.03;8387577;28;20045;-75
2022/05/01 08:49:06;;;;;;;23.42;9.20;;;;;;;16.32;41.21;99779.72;8372087;28;20106;-73
2022/05/01 08:53:07;;;;;;;17.30;8.70;;;;;;;16.44;39.82;99777.03;8378596;28;20487;-72
2022/05/01 08:57:08;;;;;;;18.40;8.07;;;;;;;16.69;38.96;99766.34;8378403;28;20059;-73
2022/05/01 09:01:11;;;;;;;22.65;8.18;;;;;;;16.81;38.77;99763.69;8402742;27;20071;-72
2022/05/01 09:05:13;;;;;;;19.77;8.25;;;;;;;17.06;39.15;99759.91;8513441;27;20053;-73
2022/05/01 09:09:19;;;;;;;17.10;7.72;;;;;;;17.18;38.54;99761.88;8506493;27;20050;-72
2022/05/01 09:13:25;;;;;;;18.25;8.50;;;;;;;16.76;38.81;99755.69;8508505;27;20046;-72
2022/05/01 09:17:26;;;;;;;16.35;8.55;;;;;;;16.98;38.62;99758.03;8502265;27;20101;-72
2022/05/01 09:21:50;;;;;;;15.20;8.43;;;;;;;17.37;37.30;99753.16;8462882;27;20293;-72
2022/05/01 09:25:58;;;;;;;15.85;8.10;;;;;;;17.65;37.68;99748.72;8496957;27;20043;-72
2022/05/01 09:30:16;;;;;;;14.55;7.43;;;;;;;17.79;36.67;99751.91;8466918;27;20043;-73
2022/05/01 09:34:25;;;;;;;15.02;7.95;;;;;;;17.93;37.19;99749.63;8511803;27;20488;-73
2022/05/01 09:38:27;;;;;;;18.13;7.90;;;;;;;18.07;36.71;99750.09;8509049;27;20043;-74
2022/05/01 09:42:33;;;;;;;16.75;7.38;;;;;;;18.18;36.49;99749.63;8505743;27;20054;-73
2022/05/01 09:46:34;;;;;;;15.85;6.97;;;;;;;18.26;35.91;99751.41;8511123;27;20034;-73
2022/05/01 09:50:40;;;;;;;15.07;8.20;;;;;;;18.40;34.52;99735.47;8516986;27;20481;-73
2022/05/01 09:54:42;;;;;;;13.35;6.72;;;;;;;18.60;34.66;99740.00;8519264;27;20077;-72
2022/05/01 09:58:43;;;;;;;13.00;7.03;;;;;;;18.88;34.67;99740.78;8501809;27;20043;-73
2022/05/01 10:02:44;;;;;;;17.80;9.32;;;;;;;19.25;35.36;99737.88;8521839;27;20047;-72
2022/05/01 10:06:45;;;;;;;14.98;8.20;;;;;;;19.53;33.95;99738.66;8457235;27;20490;-73
2022/05/01 10:10:51;;;;;;;13.52;6.90;;;;;;;19.63;34.36;99732.66;8511487;27;20038;-73
2022/05/01 10:14:53;;;;;;;18.50;8.48;;;;;;;19.56;34.34;99732.50;8482892;27;20053;-72
2022/05/01 10:18:55;;;;;;;21.02;8.93;;;;;;;19.64;34.76;99728.75;8509991;27;20416;-73
2022/05/01 10:22:57;;;;;;;13.75;7.20;;;;;;;19.75;33.67;99724.34;8513920;27;20046;-74
2022/05/01 10:27:29;;;;;;;15.95;7.95;;;;;;;19.51;32.34;99732.72;8496476;27;20084;-73
2022/05/01 10:32:23;;;;;;;23.65;9.18;;;;;;;19.63;33.05;99726.38;8512845;27;20046;-72
2022/05/01 10:36:37;;;;;;;11.93;6.63;;;;;;;19.94;34.10;99720.06;8514873;27;20107;-74
2022/05/01 10:40:42;;;;;;;17.10;7.28;;;;;;;19.98;33.03;99723.72;8511491;27;20043;-74
2022/05/01 10:44:44;;;;;;;15.38;7.45;;;;;;;19.80;32.79;99715.84;8516797;27;20054;-73
2022/05/01 10:48:45;;;;;;;14.30;7.20;;;;;;;19.74;33.39;99705.50;8502692;27;20049;-72
2022/05/01 10:53:06;;;;;;;13.95;6.82;;;;;;;20.00;32.64;99707.69;8457025;27;20059;-74
2022/05/01 10:57:11;;;;;;;12.88;7.43;;;;;;;20.05;32.41;99704.66;8518838;27;20042;-73
2022/05/01 11:01:13;;;;;;;14.63;6.90;;;;;;;20.23;32.57;99706.66;8456133;27;20057;-73
2022/05/01 11:05:40;;;;;;;10.65;6.55;;;;;;;20.31;31.29;99691.19;8510280;27;20580;-72
2022/05/01 11:09:47;;;;;;;11.93;6.22;;;;;;;20.31;31.97;99693.91;8402985;28;20689;-73
2022/05/01 11:13:50;;;;;;;16.70;6.82;;;;;;;20.49;30.31;99697.84;8402453;28;20044;-73
2022/05/01 11:17:54;;;;;;;12.30;7.10;;;;;;;20.43;29.63;99688.31;8385592;28;20460;-72
2022/05/01 11:21:56;;;;;;;11.90;7.20;;;;;;;20.29;32.20;99693.47;8409223;28;20145;-73
2022/05/01 11:26:11;;;;;;;12.82;6.63;;;;;;;20.48;32.11;99685.28;8387511;28;20163;-74
2022/05/01 11:30:22;;;;;;;13.95;6.90;;;;;;;20.75;31.56;99682.66;8409069;28;20052;-74
2022/05/01 11:34:22;;;;;;;11.38;6.68;;;;;;;20.49;31.76;99681.38;8417237;28;20413;-73
2022/05/01 11:38:33;;;;;;;17.67;7.03;;;;;;;20.31;30.39;99685.69;8433232;27;20050;-74
2022/05/01 11:42:36;;;;;;;14.75;6.55;;;;;;;20.28;30.77;99680.09;8528475;27;20051;-72
2022/05/01 11:46:38;;;;;;;13.48;7.45;;;;;;;19.85;32.33;99683.84;8527254;27;20049;-73
2022/05/01 11:50:40;;;;;;;14.18;7.28;;;;;;;19.92;33.16;99679.31;8525474;27;20059;-73
2022/05/01 11:54:47;;;;;;;11.07;6.50;;;;;;;20.12;31.04;99677.41;8524832;27;20058;-73
2022/05/01 12:03:13;;;;;;;14.00;6.95;;;;;;;20.52;31.31;99669.66;8524970;27;20488;-74
2022/05/01 12:07:15;;;;;;;12.75;6.45;;;;;;;20.97;31.76;99662.72;8519826;27;20445;-73
2022/05/01 12:11:27;;;;;;;10.40;6.13;;;;;;;21.40;31.03;99665.09;8529495;27;20064;-73
2022/05/01 12:15:28;;;;;;;14.57;6.47;;;;;;;21.64;30.43;99663.09;8528207;27;20120;-73
2022/05/01 12:19:37;;;;;;;10.48;6.80;;;;;;;21.43;31.24;99671.78;8486017;27;20076;-73
2022/05/01 12:23:46;;;;;;;10.43;6.15;;;;;;;21.42;29.57;99668.25;8523359;27;20070;-73
2022/05/01 12:27:47;;;;;;;17.27;7.05;;;;;;;21.70;30.90;99656.13;8528378;27;20043;-74
2022/05/01 12:32:00;;;;;;;10.68;6.30;;;;;;;21.77;31.19;99650.75;8510329;27;20050;-74
2022/05/01 12:36:01;;;;;;;18.70;8.77;;;;;;;21.96;30.33;99647.91;8526358;27;20050;-73
2022/05/01 12:40:14;;;;;;;13.10;5.78;;;;;;;22.09;28.60;99646.53;8489896;27;20516;-73
2022/05/01 12:44:16;;;;;;;11.93;6.20;;;;;;;22.19;28.19;99643.13;8519928;27;20039;-73
2022/05/01 12:48:18;;;;;;;10.75;6.20;;;;;;;21.97;27.94;99644.00;8523225;27;20114;-73
2022/05/01 12:52:31;;;;;;;9.85;6.25;;;;;;;21.89;28.03;99642.25;8487947;27;20043;-73
2022/05/01 12:56:33;;;;;;;10.68;5.78;;;;;;;22.09;28.31;99630.03;8506469;27;20051;-74
2022/05/01 13:00:39;;;;;;;8.02;5.60;;;;;;;22.33;29.38;99629.53;8499447;27;20051;-74
2022/05/01 13:04:41;;;;;;;13.27;5.63;;;;;;;22.47;27.54;99617.13;8505216;27;20087;-74
2022/05/01 13:09:05;;;;;;;13.32;5.78;;;;;;;22.37;28.70;99623.28;8477509;27;20043;-73
2022/05/01 13:13:06;;;;;;;15.88;6.40;;;;;;;22.55;29.17;99613.28;8447922;27;20042;-74
2022/05/01 13:17:10;;;;;;;10.23;5.13;;;;;;;22.55;26.57;99613.28;8474161;27;20039;-73
2022/05/01 13:21:10;;;;;;;17.70;6.00;;;;;;;22.52;26.43;99608.53;8518134;27;20045;-74
2022/05/01 13:25:13;;;;;;;11.48;4.93;;;;;;;23.04;27.07;99608.31;8525875;27;20047;-73
2022/05/01 13:29:14;;;;;;;12.85;5.00;;;;;;;24.16;25.13;99611.47;8500535;27;20089;-73
2022/05/01 13:33:15;;;;;;;8.55;4.57;;;;;;;25.33;23.83;99590.44;8520504;27;20043;-73
2022/05/01 13:37:17;;;;;;;11.13;4.95;;;;;;;25.34;22.77;99597.56;8472135;27;20042;-74
2022/05/01 13:45:38;;;;;;;14.48;4.45;;;;;;;27.17;22.47;99600.88;8521922;27;20510;-74
2022/05/01 13:49:40;;;;;;;7.85;4.80;;;;;;;27.53;21.52;99595.03;8505026;27;20095;-74
2022/05/01 13:53:42;;;;;;;11.20;4.32;;;;;;;27.12;22.46;99593.00;8512009;27;20042;-73
2022/05/01 13:57:43;;;;;;;5.57;3.90;;;;;;;26.63;22.25;99596.06;8504694;27;20250;-74
2022/05/01 14:01:44;;;;;;;7.82;3.85;;;;;;;24.91;23.39;99595.97;8509899;27;20066;-74
2022/05/01 14:05:45;;;;;;;9.43;4.07;;;;;;;23.50;25.16;99583.91;8477799;27;20460;-74
2022/05/01 14:09:46;;;;;;;11.32;4.72;;;;;;;24.09;25.33;99578.31;8502022;27;20084;-75
2022/05/01 14:13:48;;;;;;;8.77;4.45;;;;;;;26.88;23.12;99578.09;8497059;27;20172;-73
2022/05/01 14:17:51;;;;;;;9.77;4.50;;;;;;;28.39;22.00;99573.47;8500530;27;20039;-74
2022/05/01 14:21:55;;;;;;;7.30;4.25;;;;;;;29.46;20.75;99573.41;8464248;27;20406;-74
2022/05/01 14:25:56;;;;;;;8.13;4.40;;;;;;;27.50;21.46;99576.41;8511253;27;20040;-73
2022/05/01 14:29:57;;;;;;;11.35;4.68;;;;;;;26.69;22.57;99580.59;8519241;27;20039;-74
2022/05/01 14:34:05;;;;;;;10.43;4.10;;;;;;;26.70;22.90;99576.63;8507918;27;20081;-74
2022/05/01 14:38:08;;;;;;;6.90;3.97;;;;;;;27.50;22.62;99573.66;8465185;27;20043;-74
2022/05/01 14:42:15;;;;;;;6.78;4.05;;;;;;;26.73;22.00;99564.72;8490566;27;20064;-73
2022/05/01 14:46:16;;;;;;;8.90;3.78;;;;;;;24.79;24.05;99567.53;8507183;27;20497;-73
2022/05/01 14:50:17;;;;;;;10.73;3.78;;;;;;;23.66;25.22;99567.06;8513849;27;20051;-74
2022/05/01 14:54:19;;;;;;;9.82;3.85;;;;;;;22.99;25.69;99561.84;8504294;27;20057;-74
2022/05/01 15:07:09;;;;;;;10.55;4.07;;;;;;;22.36;27.35;99556.47;8506885;27;20776;-76
2022/05/01 15:11:11;;;;;;;9.85;4.35;;;;;;;22.08;27.17;99556.91;8501112;27;20484;-74
2022/05/01 15:15:12;;;;;;;9.95;4.18;;;;;;;22.11;27.68;99545.16;8501619;27;20047;-74
2022/05/01 15:19:32;;;;;;;10.07;4.07;;;;;;;22.98;26.57;99554.75;8509871;27;20047;-74
2022/05/01 15:23:49;;;;;;;13.10;4.55;;;;;;;24.95;24.25;99547.84;8514658;27;20046;-74
2022/05/01 15:27:57;;;;;;;8.85;3.83;;;;;;;26.27;21.96;99554.72;8501533;27;20130;-74
2022/05/01 15:31:58;;;;;;;11.23;5.40;;;;;;;26.41;22.24;99549.09;8514860;27;20139;-74
2022/05/01 15:36:08;;;;;;;8.05;4.20;;;;;;;26.86;21.05;99552.75;8495031;27;20053;-73
2022/05/01 15:40:11;;;;;;;11.75;4.40;;;;;;;27.00;21.89;99546.34;8504346;27;20766;-74
2022/05/01 15:44:16;;;;;;;8.73;3.63;;;;;;;27.63;20.70;99544.19;8489918;27;20057;-74
2022/05/01 15:48:18;;;;;;;4.85;3.90;;;;;;;27.81;20.51;99544.81;8475012;27;20042;-74
2022/05/01 15:56:42;;;;;;;10.25;4.00;;;;;;;28.88;19.77;99533.84;8509885;27;20101;-74
2022/05/01 16:00:43;;;;;;;10.63;4.15;;;;;;;28.75;19.68;99530.09;8507622;27;20110;-74
2022/05/01 16:04:44;;;;;;;8.65;3.75;;;;;;;28.72;19.26;99536.47;8493863;27;20511;-74
2022/05/01 16:08:45;;;;;;;7.28;3.70;;;;;;;28.60;19.60;99534.28;8508671;27;20062;-74
2022/05/01 16:13:08;;;;;;;6.80;4.10;;;;;;;27.30;20.54;99521.50;8458668;27;20047;-74
2022/05/01 16:17:31;;;;;;;28.17;14.57;;;;;;;26.36;21.69;99527.38;8459681;27;20042;-74
2022/05/01 16:21:31;;;;;;;6.78;4.20;;;;;;;26.66;21.76;99525.97;8512662;27;20034;-74
2022/05/01 16:25:33;;;;;;;7.40;3.90;;;;;;;26.51;22.00;99530.03;8510612;27;20047;-74
2022/05/01 16:29:34;;;;;;;9.32;4.50;;;;;;;25.25;22.90;99522.56;8493309;27;20070;-74
2022/05/01 16:33:43;;;;;;;6.25;3.97;;;;;;;24.25;23.85;99526.38;8503003;27;20050;-74
2022/05/01 16:37:47;;;;;;;11.95;4.35;;;;;;;23.48;24.90;99522.06;8510929;27;20553;-75
2022/05/01 16:41:49;;;;;;;11.95;3.80;;;;;;;22.89;25.34;99528.69;8500561;27;20054;-74
2022/05/01 16:45:58;;;;;;;10.88;5.35;;;;;;;22.53;25.84;99517.31;8439517;27;20047;-75
2022/05/01 16:50:00;;;;;;;10.90;5.20;;;;;;;22.14;26.28;99522.41;8505915;27;20043;-75
2022/05/01 16:54:02;;;;;;;9.57;4.60;;;;;;;21.91;26.39;99524.44;8502411;27;20677;-74
2022/05/01 16:58:04;;;;;;;12.43;5.05;;;;;;;21.47;26.74;99530.53;8502994;27;20063;-74
2022/05/01 17:02:18;;;;;;;12.18;6.32;;;;;;;21.21;27.37;99525.03;8488034;27;20050;-75
2022/05/01 17:06:45;;;;;;;19.42;5.78;;;;;;;20.94;28.21;99531.63;8502652;27;20055;-75
2022/05/01 17:10:48;;;;;;;23.10;8.38;;;;;;;20.62;28.62;99531.88;8459940;27;20051;-74
2022/05/01 17:15:05;;;;;;;16.50;6.22;;;;;;;20.33;28.95;99534.47;8495223;27;20141;-75
2022/05/01 17:19:10;;;;;;;14.38;6.72;;;;;;;20.11;29.55;99533.25;8502785;27;20120;-74
2022/05/01 17:23:18;;;;;;;22.25;11.52;;;;;;;19.78;30.08;99542.75;8504288;27;20035;-74
2022/05/01 17:27:21;;;;;;;21.83;11.50;;;;;;;19.50;30.84;99536.66;8479138;27;20122;-74
2022/05/01 17:31:24;;;;;;;14.73;8.25;;;;;;;19.28;32.07;99540.03;8458753;27;20404;-74
2022/05/01 17:35:27;;;;;;;8.90;5.95;;;;;;;18.99;33.24;99550.28;8395383;28;20052;-74
2022/05/01 17:39:31;;;;;;;22.80;7.30;;;;;;;18.76;33.86;99552.06;8394772;28;20055;-74
2022/05/01 17:43:34;;;;;;;20.20;8.02;;;;;;;18.55;34.68;99546.03;8396983;28;20056;-73
2022/05/01 17:47:38;;;;;;;22.20;8.60;;;;;;;18.25;35.40;99547.50;8393511;28;20476;-73
2022/05/01 17:51:40;;;;;;;24.60;7.72;;;;;;;18.00;36.05;99544.91;8423222;28;20060;-73
2022/05/01 17:55:41;;;;;;;20.98;9.18;;;;;;;17.85;37.01;99551.09;8406667;28;20040;-73
2022/05/01 17:59:42;;;;;;;24.42;9.10;;;;;;;17.61;37.82;99551.13;8386641;28;20040;-73
2022/05/01 18:13:16;;;;;;;26.27;10.10;;;;;;;16.64;39.42;99567.47;8530652;27;20456;-72
2022/05/01 18:17:45;;;;;;;61.67;26.75;;;;;;;16.32;40.11;99572.56;8521537;27;20045;-73
2022/05/01 18:22:00;;;;;;;61.00;27.80;;;;;;;16.06;40.76;99574.72;8520423;27;20049;-73
2022/05/01 18:26:23;;;;;;;51.60;23.98;;;;;;;15.91;41.66;99578.06;8504802;27;20055;-73
2022/05/01 18:30:31;;;;;;;48.13;18.80;;;;;;;15.69;42.40;99581.09;8488838;27;20058;-72
2022/05/01 18:34:56;;;;;;;36.53;17.30;;;;;;;15.39;43.64;99588.44;8503255;27;20064;-73
2022/05/01 18:39:03;;;;;;;25.30;10.50;;;;;;;15.07;43.87;99581.69;8522630;27;20384;-72
2022/05/01 18:43:04;;;;;;;33.83;17.70;;;;;;;14.88;44.11;99589.47;8516823;27;20075;-73
2022/05/01 18:47:05;;;;;;;33.50;17.05;;;;;;;14.64;44.68;99593.56;8523602;27;20043;-73
2022/05/01 18:51:10;;;;;;;32.40;16.33;;;;;;;14.53;44.91;99589.56;8465366;27;20043;-73
2022/05/01 18:55:15;;;;;;;36.70;20.48;;;;;;;14.45;45.17;99609.41;8514946;27;20047;-72
2022/05/01 18:59:18;;;;;;;33.65;14.75;;;;;;;14.30;45.63;99596.28;8513070;27;20065;-73
2022/05/01 19:03:20;;;;;;;31.15;15.43;;;;;;;14.13;45.96;99596.28;8500361;27;20051;-73
2022/05/01 19:07:22;;;;;;;37.50;16.73;;;;;;;13.99;46.48;99601.09;8476989;27;20042;-73
2022/05/01 19:11:43;;;;;;;33.40;16.13;;;;;;;13.82;47.22;99591.81;8469523;27;20559;-72
2022/05/01 19:15:51;;;;;;;32.10;11.27;;;;;;;13.74;47.27;99600.75;8505815;27;20420;-72
2022/05/01 19:20:20;;;;;;;31.48;10.07;;;;;;;13.68;46.81;99596.59;8461251;27;20059;-72
2022/05/01 19:28:58;;;;;;;25.20;11.35;;;;;;;13.44;47.58;99607.84;8501393;27;20054;-72
2022/05/01 19:33:33;;;;;;;23.13;11.25;;;;;;;13.42;47.72;99609.28;8511870;27;20046;-72
2022/05/01 19:37:57;;;;;;;24.73;10.90;;;;;;;13.44;47.73;99607.06;8531103;27;20078;-72
2022/05/01 19:42:01;;;;;;;19.17;9.48;;;;;;;13.46;47.49;99610.25;8470131;27;20062;-73
2022/05/01 19:46:17;;;;;;;15.93;7.88;;;;;;;13.40;47.71;99611.50;8471661;27;20062;-73
2022/05/01 19:54:41;;;;;;;28.65;11.45;;;;;;;13.43;47.77;99608.19;8496278;27;20138;-72
2022/05/01 19:58:42;;;;;;;45.40;15.27;;;;;;;13.37;48.16;99612.16;8477347;27;20425;-72
2022/05/01 20:02:43;;;;;;;39.65;14.55;;;;;;;13.39;47.64;99609.91;8478683;27;20398;-72
2022/05/01 20:06:46;;;;;;;43.97;16.85;;;;;;;13.39;47.71;99609.91;8462554;28;20060;-72